sensor_id;sensor_type;location;lat;lon;timestamp;P1;durP1;ratioP1;P2;durP2;ratioP2
42866;SDS011;39461;40.948;73.006;2023-07-28T00:02:15;10.88;;;3.83;;
42866;SDS011;39461;40.948;73.006;2023-07-28T00:04:48;20.17;;;4.30;;
42866;SDS011;39461;40.948;73.006;2023-07-28T00:07:23;17.95;;;4.25;;
42866;SDS011;39461;40.948;73.006;2023-07-28T00:09:56;19.08;;;3.90;;
42866;SDS011;39461;40.948;73.006;2023-07-28T00:12:29;17.67;;;3.88;;
42866;SDS011;39461;40.948;73.006;2023-07-28T00:15:03;23.08;;;4.60;;
42866;SDS011;39461;40.948;73.006;2023-07-28T00:17:36;10.32;;;4.03;;
42866;SDS011;39461;40.948;73.006;2023-07-28T00:23:09;11.60;;;3.60;;
42866;SDS011;39461;40.948;73.006;2023-07-28T00:25:44;17.40;;;3.78;;
42866;SDS011;39461;40.948;73.006;2023-07-28T00:28:19;16.35;;;4.28;;
42866;SDS011;39461;40.948;73.006;2023-07-28T00:30:54;8.52;;;3.63;;
42866;SDS011;39461;40.948;73.006;2023-07-28T00:39:26;20.92;;;4.18;;
42866;SDS011;39461;40.948;73.006;2023-07-28T00:42:01;24.67;;;5.32;;
42866;SDS011;39461;40.948;73.006;2023-07-28T00:44:36;22.77;;;4.68;;
42866;SDS011;39461;40.948;73.006;2023-07-28T00:47:11;21.70;;;5.10;;
42866;SDS011;39461;40.948;73.006;2023-07-28T00:49:47;16.77;;;4.80;;
42866;SDS011;39461;40.948;73.006;2023-07-28T00:52:22;16.77;;;4.10;;
42866;SDS011;39461;40.948;73.006;2023-07-28T00:54:57;18.85;;;4.38;;
42866;SDS011;39461;40.948;73.006;2023-07-28T00:57:33;16.95;;;4.18;;
42866;SDS011;39461;40.948;73.006;2023-07-28T01:00:09;16.38;;;4.07;;
42866;SDS011;39461;40.948;73.006;2023-07-28T01:02:44;15.13;;;4.72;;
42866;SDS011;39461;40.948;73.006;2023-07-28T01:05:20;27.50;;;5.50;;
42866;SDS011;39461;40.948;73.006;2023-07-28T01:10:55;17.42;;;4.72;;
42866;SDS011;39461;40.948;73.006;2023-07-28T01:13:30;18.92;;;4.45;;
42866;SDS011;39461;40.948;73.006;2023-07-28T01:16:07;12.50;;;3.60;;
42866;SDS011;39461;40.948;73.006;2023-07-28T01:18:40;21.27;;;4.45;;
42866;SDS011;39461;40.948;73.006;2023-07-28T01:21:15;21.20;;;4.88;;
42866;SDS011;39461;40.948;73.006;2023-07-28T01:24:11;19.35;;;4.47;;
42866;SDS011;39461;40.948;73.006;2023-07-28T01:26:48;22.25;;;4.03;;
42866;SDS011;39461;40.948;73.006;2023-07-28T01:29:22;14.93;;;4.13;;
42866;SDS011;39461;40.948;73.006;2023-07-28T01:32:01;17.30;;;4.93;;
42866;SDS011;39461;40.948;73.006;2023-07-28T01:34:38;25.15;;;4.90;;
42866;SDS011;39461;40.948;73.006;2023-07-28T01:37:13;22.15;;;4.90;;
42866;SDS011;39461;40.948;73.006;2023-07-28T01:39:47;11.65;;;4.88;;
42866;SDS011;39461;40.948;73.006;2023-07-28T01:42:20;25.80;;;5.20;;
42866;SDS011;39461;40.948;73.006;2023-07-28T01:44:52;25.98;;;5.15;;
42866;SDS011;39461;40.948;73.006;2023-07-28T01:47:25;23.23;;;4.80;;
42866;SDS011;39461;40.948;73.006;2023-07-28T01:49:58;17.00;;;4.57;;
42866;SDS011;39461;40.948;73.006;2023-07-28T01:52:27;25.30;;;5.25;;
42866;SDS011;39461;40.948;73.006;2023-07-28T01:55:06;20.35;;;4.38;;
42866;SDS011;39461;40.948;73.006;2023-07-28T01:57:39;22.35;;;4.40;;
42866;SDS011;39461;40.948;73.006;2023-07-28T02:00:15;18.58;;;4.30;;
42866;SDS011;39461;40.948;73.006;2023-07-28T02:02:50;18.45;;;4.70;;
42866;SDS011;39461;40.948;73.006;2023-07-28T02:05:23;21.75;;;4.90;;
42866;SDS011;39461;40.948;73.006;2023-07-28T02:07:58;26.63;;;5.30;;
42866;SDS011;39461;40.948;73.006;2023-07-28T02:10:38;22.92;;;5.72;;
42866;SDS011;39461;40.948;73.006;2023-07-28T02:13:13;16.55;;;5.32;;
42866;SDS011;39461;40.948;73.006;2023-07-28T02:15:48;22.48;;;5.15;;
42866;SDS011;39461;40.948;73.006;2023-07-28T02:18:28;24.73;;;5.30;;
42866;SDS011;39461;40.948;73.006;2023-07-28T02:21:01;19.55;;;4.85;;
42866;SDS011;39461;40.948;73.006;2023-07-28T02:23:37;18.33;;;5.45;;
42866;SDS011;39461;40.948;73.006;2023-07-28T02:26:09;16.95;;;5.45;;
42866;SDS011;39461;40.948;73.006;2023-07-28T02:28:42;14.05;;;5.57;;
42866;SDS011;39461;40.948;73.006;2023-07-28T02:31:17;17.95;;;5.22;;
42866;SDS011;39461;40.948;73.006;2023-07-28T02:33:53;27.70;;;6.93;;
42866;SDS011;39461;40.948;73.006;2023-07-28T02:36:27;16.85;;;5.65;;
42866;SDS011;39461;40.948;73.006;2023-07-28T02:39:02;24.77;;;5.28;;
42866;SDS011;39461;40.948;73.006;2023-07-28T02:41:42;23.15;;;5.45;;
42866;SDS011;39461;40.948;73.006;2023-07-28T02:44:15;17.35;;;5.22;;
42866;SDS011;39461;40.948;73.006;2023-07-28T02:46:49;22.50;;;6.18;;
42866;SDS011;39461;40.948;73.006;2023-07-28T02:49:22;30.88;;;8.35;;
42866;SDS011;39461;40.948;73.006;2023-07-28T02:51:57;40.75;;;11.60;;
42866;SDS011;39461;40.948;73.006;2023-07-28T02:54:32;28.88;;;11.60;;
42866;SDS011;39461;40.948;73.006;2023-07-28T02:57:07;35.95;;;10.93;;
42866;SDS011;39461;40.948;73.006;2023-07-28T02:59:42;31.75;;;10.35;;
42866;SDS011;39461;40.948;73.006;2023-07-28T03:02:15;25.85;;;9.80;;
42866;SDS011;39461;40.948;73.006;2023-07-28T03:04:50;34.50;;;10.18;;
42866;SDS011;39461;40.948;73.006;2023-07-28T03:07:23;32.35;;;11.75;;
42866;SDS011;39461;40.948;73.006;2023-07-28T03:09:58;35.60;;;9.75;;
42866;SDS011;39461;40.948;73.006;2023-07-28T03:12:33;29.35;;;9.98;;
42866;SDS011;39461;40.948;73.006;2023-07-28T03:15:08;24.48;;;6.05;;
42866;SDS011;39461;40.948;73.006;2023-07-28T03:17:45;26.45;;;5.25;;
42866;SDS011;39461;40.948;73.006;2023-07-28T03:20:21;29.02;;;9.80;;
42866;SDS011;39461;40.948;73.006;2023-07-28T03:22:54;31.15;;;8.80;;
42866;SDS011;39461;40.948;73.006;2023-07-28T03:25:29;36.00;;;9.25;;
42866;SDS011;39461;40.948;73.006;2023-07-28T03:28:04;30.02;;;6.78;;
42866;SDS011;39461;40.948;73.006;2023-07-28T03:30:41;28.58;;;7.32;;
42866;SDS011;39461;40.948;73.006;2023-07-28T03:33:16;23.45;;;7.85;;
42866;SDS011;39461;40.948;73.006;2023-07-28T03:35:51;34.13;;;8.35;;
42866;SDS011;39461;40.948;73.006;2023-07-28T03:38:26;22.75;;;6.47;;
42866;SDS011;39461;40.948;73.006;2023-07-28T03:40:53;29.45;;;6.90;;
42866;SDS011;39461;40.948;73.006;2023-07-28T03:43:28;25.40;;;8.45;;
42866;SDS011;39461;40.948;73.006;2023-07-28T03:45:57;27.52;;;6.60;;
42866;SDS011;39461;40.948;73.006;2023-07-28T03:48:31;35.83;;;6.15;;
42866;SDS011;39461;40.948;73.006;2023-07-28T03:51:00;25.88;;;5.93;;
42866;SDS011;39461;40.948;73.006;2023-07-28T03:53:35;24.67;;;5.82;;
42866;SDS011;39461;40.948;73.006;2023-07-28T03:56:10;21.83;;;5.45;;
42866;SDS011;39461;40.948;73.006;2023-07-28T03:58:45;19.50;;;5.20;;
42866;SDS011;39461;40.948;73.006;2023-07-28T04:01:14;21.80;;;5.47;;
42866;SDS011;39461;40.948;73.006;2023-07-28T04:03:49;25.08;;;5.72;;
42866;SDS011;39461;40.948;73.006;2023-07-28T04:09:14;24.25;;;6.28;;
42866;SDS011;39461;40.948;73.006;2023-07-28T04:11:51;21.92;;;5.05;;
42866;SDS011;39461;40.948;73.006;2023-07-28T04:14:26;31.98;;;6.07;;
42866;SDS011;39461;40.948;73.006;2023-07-28T04:17:01;21.52;;;5.90;;
42866;SDS011;39461;40.948;73.006;2023-07-28T04:19:36;26.67;;;5.97;;
42866;SDS011;39461;40.948;73.006;2023-07-28T04:22:04;30.98;;;12.57;;
42866;SDS011;39461;40.948;73.006;2023-07-28T04:24:39;25.85;;;6.05;;
42866;SDS011;39461;40.948;73.006;2023-07-28T04:27:13;33.58;;;6.20;;
42866;SDS011;39461;40.948;73.006;2023-07-28T04:29:46;31.00;;;6.25;;
42866;SDS011;39461;40.948;73.006;2023-07-28T04:32:19;36.22;;;6.50;;
42866;SDS011;39461;40.948;73.006;2023-07-28T04:34:52;29.52;;;6.65;;
42866;SDS011;39461;40.948;73.006;2023-07-28T04:37:28;22.98;;;6.45;;
42866;SDS011;39461;40.948;73.006;2023-07-28T04:40:05;36.53;;;6.07;;
42866;SDS011;39461;40.948;73.006;2023-07-28T04:42:41;22.08;;;6.60;;
42866;SDS011;39461;40.948;73.006;2023-07-28T04:45:15;23.73;;;5.75;;
42866;SDS011;39461;40.948;73.006;2023-07-28T04:47:47;34.00;;;6.28;;
42866;SDS011;39461;40.948;73.006;2023-07-28T04:50:20;41.35;;;7.22;;
42866;SDS011;39461;40.948;73.006;2023-07-28T04:52:56;25.02;;;6.78;;
42866;SDS011;39461;40.948;73.006;2023-07-28T04:55:31;43.35;;;12.55;;
42866;SDS011;39461;40.948;73.006;2023-07-28T04:58:08;38.53;;;6.80;;
42866;SDS011;39461;40.948;73.006;2023-07-28T05:00:40;37.38;;;7.57;;
42866;SDS011;39461;40.948;73.006;2023-07-28T05:03:15;26.05;;;7.30;;
42866;SDS011;39461;40.948;73.006;2023-07-28T05:05:52;29.10;;;7.03;;
42866;SDS011;39461;40.948;73.006;2023-07-28T05:08:25;29.00;;;6.25;;
42866;SDS011;39461;40.948;73.006;2023-07-28T05:11:03;28.75;;;8.05;;
42866;SDS011;39461;40.948;73.006;2023-07-28T05:13:36;174.10;;;143.98;;
42866;SDS011;39461;40.948;73.006;2023-07-28T05:16:09;33.33;;;10.13;;
42866;SDS011;39461;40.948;73.006;2023-07-28T05:18:45;28.80;;;6.90;;
42866;SDS011;39461;40.948;73.006;2023-07-28T05:21:20;23.40;;;6.88;;
42866;SDS011;39461;40.948;73.006;2023-07-28T05:26:56;33.58;;;7.07;;
42866;SDS011;39461;40.948;73.006;2023-07-28T05:29:31;31.95;;;6.72;;
42866;SDS011;39461;40.948;73.006;2023-07-28T05:31:58;25.35;;;6.43;;
42866;SDS011;39461;40.948;73.006;2023-07-28T05:34:34;29.23;;;6.97;;
42866;SDS011;39461;40.948;73.006;2023-07-28T05:37:09;24.55;;;6.60;;
42866;SDS011;39461;40.948;73.006;2023-07-28T05:39:42;31.70;;;6.13;;
42866;SDS011;39461;40.948;73.006;2023-07-28T05:42:12;29.58;;;6.97;;
42866;SDS011;39461;40.948;73.006;2023-07-28T05:44:39;24.17;;;5.50;;
42866;SDS011;39461;40.948;73.006;2023-07-28T05:47:14;26.95;;;6.07;;
42866;SDS011;39461;40.948;73.006;2023-07-28T05:49:51;33.40;;;6.90;;
42866;SDS011;39461;40.948;73.006;2023-07-28T05:52:27;26.33;;;6.47;;
42866;SDS011;39461;40.948;73.006;2023-07-28T05:55:02;25.63;;;5.82;;
42866;SDS011;39461;40.948;73.006;2023-07-28T05:57:38;26.10;;;6.65;;
42866;SDS011;39461;40.948;73.006;2023-07-28T06:00:07;23.38;;;5.85;;
42866;SDS011;39461;40.948;73.006;2023-07-28T06:02:41;27.92;;;6.20;;
42866;SDS011;39461;40.948;73.006;2023-07-28T06:05:16;19.45;;;4.85;;
42866;SDS011;39461;40.948;73.006;2023-07-28T06:07:51;23.25;;;5.22;;
42866;SDS011;39461;40.948;73.006;2023-07-28T06:10:24;20.85;;;5.70;;
42866;SDS011;39461;40.948;73.006;2023-07-28T06:12:59;31.45;;;6.32;;
42866;SDS011;39461;40.948;73.006;2023-07-28T06:15:32;29.98;;;6.85;;
42866;SDS011;39461;40.948;73.006;2023-07-28T06:18:08;24.00;;;5.05;;
42866;SDS011;39461;40.948;73.006;2023-07-28T06:20:43;29.95;;;6.35;;
42866;SDS011;39461;40.948;73.006;2023-07-28T06:23:19;17.75;;;5.53;;
42866;SDS011;39461;40.948;73.006;2023-07-28T06:25:52;31.25;;;6.68;;
42866;SDS011;39461;40.948;73.006;2023-07-28T06:28:28;25.05;;;6.45;;
42866;SDS011;39461;40.948;73.006;2023-07-28T06:31:03;23.58;;;5.63;;
42866;SDS011;39461;40.948;73.006;2023-07-28T06:33:39;35.92;;;5.90;;
42866;SDS011;39461;40.948;73.006;2023-07-28T06:36:12;31.95;;;6.93;;
42866;SDS011;39461;40.948;73.006;2023-07-28T06:38:47;28.75;;;6.05;;
42866;SDS011;39461;40.948;73.006;2023-07-28T06:41:22;21.45;;;5.85;;
42866;SDS011;39461;40.948;73.006;2023-07-28T06:43:55;24.70;;;6.13;;
42866;SDS011;39461;40.948;73.006;2023-07-28T06:46:28;23.38;;;6.10;;
42866;SDS011;39461;40.948;73.006;2023-07-28T06:49:02;26.98;;;6.30;;
42866;SDS011;39461;40.948;73.006;2023-07-28T06:51:37;29.45;;;6.28;;
42866;SDS011;39461;40.948;73.006;2023-07-28T06:54:12;31.73;;;6.82;;
42866;SDS011;39461;40.948;73.006;2023-07-28T06:56:47;29.55;;;6.65;;
42866;SDS011;39461;40.948;73.006;2023-07-28T06:59:20;24.40;;;5.40;;
42866;SDS011;39461;40.948;73.006;2023-07-28T07:01:55;18.00;;;5.80;;
42866;SDS011;39461;40.948;73.006;2023-07-28T07:04:30;35.97;;;6.82;;
42866;SDS011;39461;40.948;73.006;2023-07-28T07:07:09;22.33;;;5.88;;
42866;SDS011;39461;40.948;73.006;2023-07-28T07:09:44;26.52;;;5.90;;
42866;SDS011;39461;40.948;73.006;2023-07-28T07:12:19;22.00;;;5.45;;
42866;SDS011;39461;40.948;73.006;2023-07-28T07:14:55;28.58;;;6.32;;
42866;SDS011;39461;40.948;73.006;2023-07-28T07:17:30;22.33;;;6.05;;
42866;SDS011;39461;40.948;73.006;2023-07-28T07:20:05;30.45;;;7.15;;
42866;SDS011;39461;40.948;73.006;2023-07-28T07:22:41;25.70;;;6.35;;
42866;SDS011;39461;40.948;73.006;2023-07-28T07:25:14;24.60;;;6.35;;
42866;SDS011;39461;40.948;73.006;2023-07-28T07:27:46;19.42;;;5.65;;
42866;SDS011;39461;40.948;73.006;2023-07-28T07:30:22;30.73;;;6.10;;
42866;SDS011;39461;40.948;73.006;2023-07-28T07:32:55;28.25;;;6.63;;
42866;SDS011;39461;40.948;73.006;2023-07-28T07:35:30;30.73;;;6.30;;
42866;SDS011;39461;40.948;73.006;2023-07-28T07:38:08;33.28;;;6.18;;
42866;SDS011;39461;40.948;73.006;2023-07-28T07:40:37;21.48;;;6.00;;
42866;SDS011;39461;40.948;73.006;2023-07-28T07:43:04;18.40;;;5.80;;
42866;SDS011;39461;40.948;73.006;2023-07-28T07:45:42;21.83;;;5.70;;
42866;SDS011;39461;40.948;73.006;2023-07-28T07:48:17;25.25;;;5.78;;
42866;SDS011;39461;40.948;73.006;2023-07-28T07:50:52;16.92;;;5.25;;
42866;SDS011;39461;40.948;73.006;2023-07-28T07:53:21;19.08;;;5.22;;
42866;SDS011;39461;40.948;73.006;2023-07-28T07:55:51;23.95;;;6.38;;
42866;SDS011;39461;40.948;73.006;2023-07-28T07:58:21;22.25;;;5.57;;
42866;SDS011;39461;40.948;73.006;2023-07-28T08:01:01;20.35;;;6.15;;
42866;SDS011;39461;40.948;73.006;2023-07-28T08:03:39;19.45;;;5.95;;
42866;SDS011;39461;40.948;73.006;2023-07-28T08:06:16;29.00;;;7.18;;
42866;SDS011;39461;40.948;73.006;2023-07-28T08:08:51;18.33;;;6.50;;
42866;SDS011;39461;40.948;73.006;2023-07-28T08:11:27;21.60;;;5.70;;
42866;SDS011;39461;40.948;73.006;2023-07-28T08:14:02;13.05;;;5.20;;
42866;SDS011;39461;40.948;73.006;2023-07-28T08:16:37;30.08;;;8.20;;
42866;SDS011;39461;40.948;73.006;2023-07-28T08:19:10;22.52;;;5.78;;
42866;SDS011;39461;40.948;73.006;2023-07-28T08:21:46;19.83;;;5.25;;
42866;SDS011;39461;40.948;73.006;2023-07-28T08:24:23;21.17;;;7.38;;
42866;SDS011;39461;40.948;73.006;2023-07-28T08:26:58;28.52;;;9.85;;
42866;SDS011;39461;40.948;73.006;2023-07-28T08:29:31;23.35;;;4.40;;
42866;SDS011;39461;40.948;73.006;2023-07-28T08:32:05;18.20;;;4.25;;
42866;SDS011;39461;40.948;73.006;2023-07-28T08:34:40;15.88;;;4.15;;
42866;SDS011;39461;40.948;73.006;2023-07-28T08:37:15;20.85;;;4.80;;
42866;SDS011;39461;40.948;73.006;2023-07-28T08:39:50;17.20;;;4.85;;
42866;SDS011;39461;40.948;73.006;2023-07-28T08:42:28;21.70;;;5.05;;
42866;SDS011;39461;40.948;73.006;2023-07-28T08:45:04;19.77;;;5.35;;
42866;SDS011;39461;40.948;73.006;2023-07-28T08:47:43;12.52;;;4.45;;
42866;SDS011;39461;40.948;73.006;2023-07-28T08:50:17;11.02;;;4.07;;
42866;SDS011;39461;40.948;73.006;2023-07-28T08:52:50;22.92;;;4.80;;
42866;SDS011;39461;40.948;73.006;2023-07-28T08:55:23;32.92;;;5.22;;
42866;SDS011;39461;40.948;73.006;2023-07-28T08:58:13;25.65;;;6.00;;
42866;SDS011;39461;40.948;73.006;2023-07-28T09:00:48;13.68;;;4.78;;
42866;SDS011;39461;40.948;73.006;2023-07-28T09:03:26;19.55;;;5.15;;
42866;SDS011;39461;40.948;73.006;2023-07-28T09:06:04;23.42;;;4.72;;
42866;SDS011;39461;40.948;73.006;2023-07-28T09:08:42;23.98;;;5.75;;
42866;SDS011;39461;40.948;73.006;2023-07-28T09:11:16;16.05;;;5.30;;
42866;SDS011;39461;40.948;73.006;2023-07-28T09:13:54;28.23;;;5.65;;
42866;SDS011;39461;40.948;73.006;2023-07-28T09:16:29;15.75;;;5.55;;
42866;SDS011;39461;40.948;73.006;2023-07-28T09:19:06;25.40;;;5.38;;
42866;SDS011;39461;40.948;73.006;2023-07-28T09:21:42;20.60;;;4.90;;
42866;SDS011;39461;40.948;73.006;2023-07-28T09:24:19;19.15;;;5.40;;
42866;SDS011;39461;40.948;73.006;2023-07-28T09:26:53;20.95;;;5.25;;
42866;SDS011;39461;40.948;73.006;2023-07-28T09:29:27;16.55;;;5.95;;
42866;SDS011;39461;40.948;73.006;2023-07-28T09:32:04;24.20;;;6.65;;
42866;SDS011;39461;40.948;73.006;2023-07-28T09:34:38;21.33;;;5.45;;
42866;SDS011;39461;40.948;73.006;2023-07-28T09:37:11;21.92;;;5.40;;
42866;SDS011;39461;40.948;73.006;2023-07-28T09:39:46;18.50;;;5.88;;
42866;SDS011;39461;40.948;73.006;2023-07-28T09:42:20;22.70;;;5.93;;
42866;SDS011;39461;40.948;73.006;2023-07-28T09:44:49;27.80;;;5.40;;
42866;SDS011;39461;40.948;73.006;2023-07-28T09:47:22;27.63;;;5.65;;
42866;SDS011;39461;40.948;73.006;2023-07-28T09:49:58;26.33;;;5.43;;
42866;SDS011;39461;40.948;73.006;2023-07-28T09:52:34;31.42;;;5.35;;
42866;SDS011;39461;40.948;73.006;2023-07-28T09:55:11;16.45;;;4.35;;
42866;SDS011;39461;40.948;73.006;2023-07-28T09:57:46;17.58;;;4.90;;
42866;SDS011;39461;40.948;73.006;2023-07-28T10:00:23;19.23;;;5.60;;
42866;SDS011;39461;40.948;73.006;2023-07-28T10:02:58;18.15;;;4.68;;
42866;SDS011;39461;40.948;73.006;2023-07-28T10:05:33;18.85;;;5.43;;
42866;SDS011;39461;40.948;73.006;2023-07-28T10:08:08;27.02;;;4.55;;
42866;SDS011;39461;40.948;73.006;2023-07-28T10:10:44;16.52;;;4.85;;
42866;SDS011;39461;40.948;73.006;2023-07-28T10:13:20;16.83;;;4.47;;
42866;SDS011;39461;40.948;73.006;2023-07-28T10:15:53;21.05;;;5.65;;
42866;SDS011;39461;40.948;73.006;2023-07-28T10:18:29;12.40;;;4.18;;
42866;SDS011;39461;40.948;73.006;2023-07-28T10:21:05;28.25;;;5.45;;
42866;SDS011;39461;40.948;73.006;2023-07-28T10:23:41;26.70;;;5.45;;
42866;SDS011;39461;40.948;73.006;2023-07-28T10:26:14;14.38;;;4.80;;
42866;SDS011;39461;40.948;73.006;2023-07-28T10:29:14;27.92;;;6.57;;
42866;SDS011;39461;40.948;73.006;2023-07-28T10:31:53;23.80;;;5.55;;
42866;SDS011;39461;40.948;73.006;2023-07-28T10:34:29;26.35;;;4.57;;
42866;SDS011;39461;40.948;73.006;2023-07-28T10:37:05;23.85;;;5.25;;
42866;SDS011;39461;40.948;73.006;2023-07-28T10:39:41;20.02;;;4.72;;
42866;SDS011;39461;40.948;73.006;2023-07-28T10:42:14;24.50;;;5.30;;
42866;SDS011;39461;40.948;73.006;2023-07-28T10:44:49;24.70;;;5.38;;
42866;SDS011;39461;40.948;73.006;2023-07-28T10:47:23;20.90;;;5.38;;
42866;SDS011;39461;40.948;73.006;2023-07-28T10:50:02;13.82;;;5.00;;
42866;SDS011;39461;40.948;73.006;2023-07-28T10:52:41;21.35;;;5.22;;
42866;SDS011;39461;40.948;73.006;2023-07-28T10:55:18;21.25;;;5.30;;
42866;SDS011;39461;40.948;73.006;2023-07-28T10:57:52;31.02;;;6.43;;
42866;SDS011;39461;40.948;73.006;2023-07-28T11:00:25;19.38;;;5.28;;
42866;SDS011;39461;40.948;73.006;2023-07-28T11:03:00;13.77;;;5.00;;
42866;SDS011;39461;40.948;73.006;2023-07-28T11:05:35;17.67;;;4.88;;
42866;SDS011;39461;40.948;73.006;2023-07-28T11:08:09;23.90;;;5.95;;
42866;SDS011;39461;40.948;73.006;2023-07-28T11:10:43;21.63;;;5.38;;
42866;SDS011;39461;40.948;73.006;2023-07-28T11:13:18;18.50;;;5.43;;
42866;SDS011;39461;40.948;73.006;2023-07-28T11:15:55;20.10;;;5.32;;
42866;SDS011;39461;40.948;73.006;2023-07-28T11:18:34;16.08;;;5.03;;
42866;SDS011;39461;40.948;73.006;2023-07-28T11:21:09;21.90;;;5.68;;
42866;SDS011;39461;40.948;73.006;2023-07-28T11:23:45;19.88;;;5.32;;
42866;SDS011;39461;40.948;73.006;2023-07-28T11:26:20;18.95;;;5.70;;
42866;SDS011;39461;40.948;73.006;2023-07-28T11:28:56;26.55;;;6.25;;
42866;SDS011;39461;40.948;73.006;2023-07-28T11:31:33;19.83;;;6.32;;
42866;SDS011;39461;40.948;73.006;2023-07-28T11:34:13;22.30;;;5.95;;
42866;SDS011;39461;40.948;73.006;2023-07-28T11:36:48;19.63;;;6.00;;
42866;SDS011;39461;40.948;73.006;2023-07-28T11:39:25;20.23;;;5.60;;
42866;SDS011;39461;40.948;73.006;2023-07-28T11:41:57;20.98;;;5.78;;
42866;SDS011;39461;40.948;73.006;2023-07-28T11:44:24;23.52;;;5.97;;
42866;SDS011;39461;40.948;73.006;2023-07-28T11:46:53;24.58;;;5.47;;
42866;SDS011;39461;40.948;73.006;2023-07-28T11:49:29;20.20;;;5.47;;
42866;SDS011;39461;40.948;73.006;2023-07-28T11:51:58;17.27;;;5.43;;
42866;SDS011;39461;40.948;73.006;2023-07-28T11:54:26;14.63;;;5.78;;
42866;SDS011;39461;40.948;73.006;2023-07-28T11:56:56;27.90;;;6.18;;
42866;SDS011;39461;40.948;73.006;2023-07-28T11:59:25;22.27;;;5.90;;
42866;SDS011;39461;40.948;73.006;2023-07-28T12:02:01;24.02;;;6.88;;
42866;SDS011;39461;40.948;73.006;2023-07-28T12:04:39;21.25;;;5.82;;
42866;SDS011;39461;40.948;73.006;2023-07-28T12:07:17;26.40;;;5.63;;
42866;SDS011;39461;40.948;73.006;2023-07-28T12:09:52;20.45;;;5.55;;
42866;SDS011;39461;40.948;73.006;2023-07-28T12:12:24;23.45;;;6.20;;
42866;SDS011;39461;40.948;73.006;2023-07-28T12:14:58;19.33;;;5.63;;
42866;SDS011;39461;40.948;73.006;2023-07-28T12:17:32;16.58;;;4.88;;
42866;SDS011;39461;40.948;73.006;2023-07-28T12:20:08;21.90;;;5.88;;
42866;SDS011;39461;40.948;73.006;2023-07-28T12:22:43;23.00;;;5.55;;
42866;SDS011;39461;40.948;73.006;2023-07-28T12:25:11;31.15;;;6.15;;
42866;SDS011;39461;40.948;73.006;2023-07-28T12:27:44;22.00;;;5.57;;
42866;SDS011;39461;40.948;73.006;2023-07-28T12:30:17;21.08;;;6.35;;
42866;SDS011;39461;40.948;73.006;2023-07-28T12:32:45;29.13;;;6.53;;
42866;SDS011;39461;40.948;73.006;2023-07-28T12:35:18;16.30;;;5.60;;
42866;SDS011;39461;40.948;73.006;2023-07-28T12:37:54;26.88;;;7.32;;
42866;SDS011;39461;40.948;73.006;2023-07-28T12:40:22;23.02;;;6.93;;
42866;SDS011;39461;40.948;73.006;2023-07-28T12:42:55;28.55;;;6.85;;
42866;SDS011;39461;40.948;73.006;2023-07-28T12:45:28;22.75;;;6.03;;
42866;SDS011;39461;40.948;73.006;2023-07-28T12:48:08;29.63;;;7.22;;
42866;SDS011;39461;40.948;73.006;2023-07-28T12:50:41;31.08;;;10.52;;
42866;SDS011;39461;40.948;73.006;2023-07-28T12:53:14;49.15;;;26.20;;
42866;SDS011;39461;40.948;73.006;2023-07-28T12:55:51;83.10;;;45.03;;
42866;SDS011;39461;40.948;73.006;2023-07-28T12:58:27;93.45;;;44.83;;
42866;SDS011;39461;40.948;73.006;2023-07-28T13:01:02;32.78;;;14.55;;
42866;SDS011;39461;40.948;73.006;2023-07-28T13:03:38;41.25;;;12.60;;
42866;SDS011;39461;40.948;73.006;2023-07-28T13:06:07;29.63;;;11.23;;
42866;SDS011;39461;40.948;73.006;2023-07-28T13:08:44;28.55;;;9.73;;
42866;SDS011;39461;40.948;73.006;2023-07-28T13:11:19;68.93;;;30.75;;
42866;SDS011;39461;40.948;73.006;2023-07-28T13:13:56;84.75;;;40.10;;
42866;SDS011;39461;40.948;73.006;2023-07-28T13:16:31;38.60;;;18.45;;
42866;SDS011;39461;40.948;73.006;2023-07-28T13:19:05;83.57;;;35.80;;
42866;SDS011;39461;40.948;73.006;2023-07-28T13:21:38;64.65;;;23.23;;
42866;SDS011;39461;40.948;73.006;2023-07-28T13:24:11;64.72;;;32.60;;
42866;SDS011;39461;40.948;73.006;2023-07-28T13:26:44;46.42;;;18.52;;
42866;SDS011;39461;40.948;73.006;2023-07-28T13:29:19;40.97;;;15.75;;
42866;SDS011;39461;40.948;73.006;2023-07-28T13:31:57;30.77;;;18.85;;
42866;SDS011;39461;40.948;73.006;2023-07-28T13:34:27;43.50;;;16.85;;
42866;SDS011;39461;40.948;73.006;2023-07-28T13:37:03;34.67;;;10.63;;
42866;SDS011;39461;40.948;73.006;2023-07-28T13:39:38;25.17;;;8.32;;
42866;SDS011;39461;40.948;73.006;2023-07-28T13:42:05;36.10;;;12.70;;
42866;SDS011;39461;40.948;73.006;2023-07-28T13:44:36;36.67;;;15.70;;
42866;SDS011;39461;40.948;73.006;2023-07-28T13:47:09;22.98;;;9.20;;
42866;SDS011;39461;40.948;73.006;2023-07-28T13:49:42;38.30;;;15.43;;
42866;SDS011;39461;40.948;73.006;2023-07-28T13:52:15;40.65;;;18.05;;
42866;SDS011;39461;40.948;73.006;2023-07-28T13:54:48;50.05;;;26.10;;
42866;SDS011;39461;40.948;73.006;2023-07-28T13:57:26;45.75;;;23.65;;
42866;SDS011;39461;40.948;73.006;2023-07-28T14:02:59;38.83;;;14.00;;
42866;SDS011;39461;40.948;73.006;2023-07-28T14:05:33;31.52;;;10.80;;
42866;SDS011;39461;40.948;73.006;2023-07-28T14:08:06;38.20;;;11.10;;
42866;SDS011;39461;40.948;73.006;2023-07-28T14:10:45;37.08;;;13.60;;
42866;SDS011;39461;40.948;73.006;2023-07-28T14:13:19;68.90;;;16.23;;
42866;SDS011;39461;40.948;73.006;2023-07-28T14:15:52;45.70;;;15.00;;
42866;SDS011;39461;40.948;73.006;2023-07-28T14:18:27;55.60;;;14.57;;
42866;SDS011;39461;40.948;73.006;2023-07-28T14:21:00;42.55;;;13.40;;
42866;SDS011;39461;40.948;73.006;2023-07-28T14:23:33;47.33;;;13.57;;
42866;SDS011;39461;40.948;73.006;2023-07-28T14:26:06;61.90;;;19.13;;
42866;SDS011;39461;40.948;73.006;2023-07-28T14:28:39;82.00;;;32.15;;
42866;SDS011;39461;40.948;73.006;2023-07-28T14:31:14;62.25;;;29.17;;
42866;SDS011;39461;40.948;73.006;2023-07-28T14:36:46;86.15;;;35.65;;
42866;SDS011;39461;40.948;73.006;2023-07-28T14:39:21;89.07;;;38.53;;
42866;SDS011;39461;40.948;73.006;2023-07-28T14:41:54;91.70;;;41.20;;
42866;SDS011;39461;40.948;73.006;2023-07-28T14:44:27;92.57;;;37.55;;
42866;SDS011;39461;40.948;73.006;2023-07-28T14:47:00;79.43;;;33.13;;
42866;SDS011;39461;40.948;73.006;2023-07-28T14:49:39;75.50;;;31.45;;
42866;SDS011;39461;40.948;73.006;2023-07-28T14:52:14;74.68;;;30.08;;
42866;SDS011;39461;40.948;73.006;2023-07-28T14:54:47;84.13;;;30.90;;
42866;SDS011;39461;40.948;73.006;2023-07-28T14:57:20;76.13;;;31.85;;
42866;SDS011;39461;40.948;73.006;2023-07-28T14:59:55;106.03;;;30.38;;
42866;SDS011;39461;40.948;73.006;2023-07-28T15:02:26;59.53;;;28.80;;
42866;SDS011;39461;40.948;73.006;2023-07-28T15:05:05;69.85;;;28.85;;
42866;SDS011;39461;40.948;73.006;2023-07-28T15:07:38;72.68;;;27.70;;
42866;SDS011;39461;40.948;73.006;2023-07-28T15:10:13;73.85;;;28.83;;
42866;SDS011;39461;40.948;73.006;2023-07-28T15:12:46;75.47;;;27.38;;
42866;SDS011;39461;40.948;73.006;2023-07-28T15:15:20;68.72;;;27.00;;
42866;SDS011;39461;40.948;73.006;2023-07-28T15:17:55;78.47;;;27.55;;
42866;SDS011;39461;40.948;73.006;2023-07-28T15:20:28;76.30;;;26.35;;
42866;SDS011;39461;40.948;73.006;2023-07-28T15:23:03;74.40;;;25.60;;
42866;SDS011;39461;40.948;73.006;2023-07-28T15:25:36;173.38;;;30.17;;